createdAt,value
2022-11-24T00:03:49.921Z,8.8
2022-11-24T00:13:50.720Z,8.8
2022-11-24T00:23:51.707Z,8.6
2022-11-24T00:43:52.729Z,8.5
2022-11-24T00:53:53.133Z,8.3
2022-11-24T01:03:53.894Z,8.3
2022-11-24T01:13:54.610Z,8.2
2022-11-24T01:23:54.904Z,8.4
2022-11-24T01:33:55.230Z,8.2
2022-11-24T01:43:55.473Z,8.2
2022-11-24T01:53:56.214Z,8.3
2022-11-24T02:03:57.056Z,8.3
2022-11-24T02:13:57.906Z,8.3
2022-11-24T02:33:58.723Z,8.5
2022-11-24T02:43:58.998Z,8.5
2022-11-24T02:53:59.374Z,8.5
2022-11-24T03:03:59.432Z,8.5
2022-11-24T03:13:59.796Z,8.5
2022-11-24T03:24:00.617Z,8.4
2022-11-24T03:34:01.185Z,8.5
2022-11-24T03:44:01.252Z,8.5
2022-11-24T03:54:01.443Z,8.5
2022-11-24T04:04:01.538Z,8.5
2022-11-24T04:14:02.093Z,8.6
2022-11-24T04:24:02.821Z,8.7
2022-11-24T04:34:03.582Z,8.8
2022-11-24T04:44:04.410Z,8.9
2022-11-24T05:04:06.060Z,8.6
2022-11-24T05:14:06.220Z,8.4
2022-11-24T05:24:06.347Z,8.5
2022-11-24T05:34:07.204Z,8.7
2022-11-24T05:44:07.325Z,8.7
2022-11-24T05:54:07.669Z,8.8
2022-11-24T06:04:08.333Z,8.9
2022-11-24T06:14:11.257Z,8.9
2022-11-24T06:24:09.269Z,8.9
2022-11-24T06:34:09.597Z,9
2022-11-24T06:44:09.996Z,9
2022-11-24T06:54:10.462Z,8.9
2022-11-24T07:04:11.273Z,8.8
2022-11-24T07:14:11.910Z,8.8
2022-11-24T07:24:12.800Z,8.7
2022-11-24T07:34:13.342Z,8.8
2022-11-24T07:44:13.760Z,8.8
2022-11-24T07:54:14.469Z,8.8
2022-11-24T08:04:14.778Z,8.8
2022-11-24T08:14:15.582Z,8.7
2022-11-24T08:24:15.972Z,8.5
2022-11-24T08:34:16.160Z,8.6
2022-11-24T08:44:16.488Z,8.6
2022-11-24T08:54:17.352Z,8.7
2022-11-24T09:14:18.013Z,8.7
2022-11-24T09:24:18.460Z,8.6
2022-11-24T09:34:19.057Z,8.6
2022-11-24T09:44:19.677Z,8.5
2022-11-24T09:54:19.803Z,8.5
2022-11-24T10:04:20.693Z,8.7
2022-11-24T10:14:21.244Z,9
2022-11-24T10:24:21.686Z,9
2022-11-24T10:34:22.086Z,8.7
2022-11-24T10:44:22.877Z,8.8
2022-11-24T10:54:23.655Z,8.8
2022-11-24T11:04:23.866Z,9.1
2022-11-24T11:14:24.559Z,10
2022-11-24T11:24:25.027Z,9.8
2022-11-24T11:34:29.946Z,10
2022-11-24T11:44:26.339Z,10.1
2022-11-24T11:54:27.303Z,10.1
2022-11-24T12:04:27.320Z,10.5
2022-11-24T12:24:28.615Z,11.1
2022-11-24T12:34:29.147Z,11.4
2022-11-24T12:44:29.616Z,11
2022-11-24T12:54:30.647Z,11.2
2022-11-24T13:04:32.013Z,11.6
2022-11-24T13:14:32.955Z,11.8
2022-11-24T13:24:33.244Z,12.1
2022-11-24T13:34:33.435Z,11.7
2022-11-24T13:44:34.215Z,11
2022-11-24T13:54:35.102Z,10.9
2022-11-24T14:04:35.344Z,10.9
2022-11-24T14:14:36.157Z,10.8
2022-11-24T14:24:39.924Z,10.6
2022-11-24T14:34:36.672Z,10.5
2022-11-24T14:44:36.836Z,10.4
2022-11-24T14:54:37.388Z,10.3
2022-11-24T15:05:03.513Z,10
2022-11-24T15:14:37.765Z,9.8
2022-11-24T15:24:38.236Z,9.5
2022-11-24T15:34:38.777Z,9.2
2022-11-24T15:44:39.065Z,8.8
2022-11-24T15:54:39.594Z,8.5
2022-11-24T16:04:40.202Z,8.4
2022-11-24T16:14:40.448Z,8.3
2022-11-24T16:14:45.696Z,8.3
2022-11-24T16:24:46.499Z,8.2
2022-11-24T16:34:46.990Z,8.2
2022-11-24T16:44:47.489Z,8
2022-11-24T16:54:48.378Z,8
2022-11-24T17:04:49.126Z,7.9
2022-11-24T17:15:09.700Z,8
2022-11-24T17:24:49.812Z,8
2022-11-24T17:34:50.313Z,8.3
2022-11-24T17:44:50.481Z,8.4
2022-11-24T17:54:50.890Z,8.3
2022-11-24T18:04:51.849Z,8.2
2022-11-24T18:14:52.837Z,8.2
2022-11-24T18:24:53.580Z,8.1
2022-11-24T18:34:54.158Z,8.1
2022-11-24T18:44:54.862Z,8.1
2022-11-24T18:54:55.057Z,8.1
2022-11-24T19:04:55.772Z,8.2
2022-11-24T19:14:56.076Z,8.2
2022-11-24T19:24:56.545Z,8.1
2022-11-24T19:34:57.406Z,7.8
2022-11-24T19:44:57.810Z,7.8
2022-11-24T19:54:58.179Z,7.7
2022-11-24T20:04:58.335Z,7.7
2022-11-24T20:14:58.887Z,7.7
2022-11-24T20:24:58.887Z,7.6
2022-11-24T20:34:59.658Z,7.5
2022-11-24T20:44:59.961Z,7.5
2022-11-24T20:55:00.043Z,7.4
2022-11-24T21:05:00.088Z,7.3
2022-11-24T21:15:00.762Z,7.3
2022-11-24T21:25:01.524Z,7.4
2022-11-24T21:45:02.752Z,7.6
2022-11-24T21:55:03.464Z,7.6
2022-11-24T22:05:04.192Z,7.5
2022-11-24T22:15:04.538Z,7.4
2022-11-24T22:25:05.395Z,7.5
2022-11-24T22:35:06.093Z,7.4
2022-11-24T22:45:06.610Z,7.3
2022-11-24T22:55:07.091Z,7.3
2022-11-24T23:05:07.749Z,7.2
2022-11-24T23:15:07.902Z,7.2
2022-11-24T23:25:08.678Z,7.5
2022-11-24T23:35:13.567Z,7.6
2022-11-24T23:45:09.762Z,7.8
2022-11-24T23:55:10.051Z,7.8
